Time;durP1;ratioP1;P1;durP2;ratioP2;P2;SDS_P1;SDS_P2;PMS_P1;PMS_P2;Temp;Humidity;BMP_temperature;BMP_pressure;BME280_temperature;BME280_humidity;BME280_pressure;Samples;Min_cycle;Max_cycle;Signal;HPM_P1;HPM_P2
2021/07/25 00:01:02;;;;;;;8.13;3.72;;;;;;;19.86;73.42;96629.88;5014306;28;20033;-78
2021/07/25 00:03:27;;;;;;;6.57;3.78;;;;;;;19.86;73.18;96622.75;4998481;28;20331;-78
2021/07/25 00:05:55;;;;;;;5.50;3.30;;;;;;;19.89;73.02;96632.66;5032772;28;20033;-79
2021/07/25 00:08:20;;;;;;;4.50;3.20;;;;;;;19.84;73.11;96624.91;5013219;28;20079;-79
2021/07/25 00:10:46;;;;;;;4.00;3.03;;;;;;;19.80;73.21;96622.13;5031806;28;20037;-79
2021/07/25 00:13:14;;;;;;;8.45;3.90;;;;;;;19.77;73.30;96619.34;5014578;28;20036;-79
2021/07/25 00:15:39;;;;;;;10.43;4.20;;;;;;;19.76;73.23;96613.31;5014198;28;20388;-79
2021/07/25 00:18:05;;;;;;;12.38;3.95;;;;;;;19.76;73.16;96613.31;4996717;28;20026;-79
2021/07/25 00:20:31;;;;;;;4.72;3.00;;;;;;;19.75;73.09;96618.91;4997884;28;20069;-79
2021/07/25 00:22:57;;;;;;;3.95;2.95;;;;;;;19.76;73.12;96623.09;4981845;28;20030;-79
2021/07/25 00:25:22;;;;;;;7.32;3.38;;;;;;;19.75;72.91;96619.66;5030327;28;20021;-79
2021/07/25 00:27:52;;;;;;;5.38;3.30;;;;;;;19.74;73.04;96617.31;4997405;28;20034;-79
2021/07/25 00:30:19;;;;;;;5.68;2.90;;;;;;;19.71;73.09;96613.44;5014300;28;20037;-79
2021/07/25 00:32:45;;;;;;;5.25;3.83;;;;;;;19.69;73.24;96610.34;4997579;28;20084;-79
2021/07/25 00:35:11;;;;;;;11.48;4.03;;;;;;;19.73;72.96;96605.97;5014479;28;20472;-79
2021/07/25 00:37:37;;;;;;;10.13;3.58;;;;;;;19.71;73.32;96610.81;5031014;28;20033;-80
2021/07/25 00:40:03;;;;;;;10.43;3.70;;;;;;;19.67;72.83;96599.31;5030158;28;20026;-79
2021/07/25 00:42:39;;;;;;;9.68;3.50;;;;;;;19.52;73.52;96613.81;5013823;28;20038;-79
2021/07/25 00:45:05;;;;;;;6.22;3.22;;;;;;;19.68;72.95;96600.88;5013874;28;20400;-79
2021/07/25 00:47:30;;;;;;;5.15;3.28;;;;;;;19.70;73.07;96597.91;4997141;28;20496;-79
2021/07/25 00:49:56;;;;;;;4.60;2.80;;;;;;;19.71;72.86;96592.31;5013528;28;20145;-79
2021/07/25 00:52:21;;;;;;;5.45;3.00;;;;;;;19.73;73.00;96592.75;4997392;28;20033;-79
2021/07/25 00:54:46;;;;;;;6.93;3.28;;;;;;;19.68;73.04;96598.22;5013391;28;20103;-79
2021/07/25 00:57:12;;;;;;;6.75;3.65;;;;;;;19.67;72.87;96595.91;4980853;28;20037;-78
2021/07/25 00:59:37;;;;;;;3.75;2.58;;;;;;;19.58;73.17;96601.22;4986294;28;20033;-78
2021/07/25 01:02:03;;;;;;;5.07;3.20;;;;;;;19.56;73.26;96593.59;5021962;22;20151;-79
2021/07/25 01:04:40;;;;;;;6.03;3.20;;;;;;;19.38;73.47;96607.94;5026680;28;20357;-79
2021/07/25 01:07:14;;;;;;;3.70;2.60;;;;;;;19.56;73.06;96601.53;5045983;28;20029;-79
2021/07/25 01:09:55;;;;;;;4.90;3.15;;;;;;;19.49;73.18;96603.13;5030585;28;20041;-80
2021/07/25 01:12:24;;;;;;;5.43;3.55;;;;;;;19.62;72.42;96610.84;5032940;28;20036;-79
2021/07/25 01:14:53;;;;;;;4.43;3.53;;;;;;;19.61;72.50;96606.63;5050128;28;20052;-79
2021/07/25 01:17:29;;;;;;;4.95;4.00;;;;;;;19.51;72.93;96614.16;5033172;28;20036;-79
2021/07/25 01:19:56;;;;;;;6.07;4.35;;;;;;;19.69;72.72;96610.34;5049882;28;20048;-80
2021/07/25 01:22:22;;;;;;;5.45;4.10;;;;;;;19.76;72.51;96613.31;5046287;28;20107;-79
2021/07/25 01:24:47;;;;;;;9.18;5.18;;;;;;;19.69;72.59;96618.28;5033313;28;20063;-79
2021/07/25 01:27:24;;;;;;;7.85;5.38;;;;;;;19.51;73.55;96616.78;5016166;28;20025;-79
2021/07/25 01:29:53;;;;;;;7.88;5.00;;;;;;;19.65;73.25;96607.56;5047121;28;20030;-79
2021/07/25 01:32:18;;;;;;;7.55;5.55;;;;;;;19.72;73.42;96607.06;5029365;28;20034;-79
2021/07/25 01:34:44;;;;;;;10.07;6.22;;;;;;;19.64;73.73;96616.56;5027239;28;20029;-79
2021/07/25 01:37:12;;;;;;;10.55;6.30;;;;;;;19.61;73.67;96611.91;5032425;28;20037;-79
2021/07/25 01:39:37;;;;;;;9.05;6.22;;;;;;;19.68;73.83;96622.00;5033117;28;20039;-79
2021/07/25 01:42:02;;;;;;;10.13;6.40;;;;;;;19.67;73.64;96619.66;5032326;28;20032;-79
2021/07/25 01:44:28;;;;;;;10.10;6.22;;;;;;;19.70;73.79;96617.16;5032409;28;20063;-79
2021/07/25 01:46:54;;;;;;;12.68;8.35;;;;;;;19.71;73.56;96620.59;5015907;28;20022;-79
2021/07/25 01:49:20;;;;;;;11.43;7.30;;;;;;;19.73;73.67;96619.19;5049491;28;20045;-79
2021/07/25 01:51:45;;;;;;;10.55;6.95;;;;;;;19.73;73.48;96613.13;5014050;28;20080;-79
2021/07/25 01:54:10;;;;;;;9.50;7.30;;;;;;;19.76;73.81;96621.22;5042913;28;20031;-80
2021/07/25 01:56:36;;;;;;;12.55;7.65;;;;;;;19.78;73.85;96615.63;5030276;28;20029;-80
2021/07/25 01:59:01;;;;;;;13.60;7.38;;;;;;;19.79;73.74;96601.31;5030137;28;20037;-79
2021/07/25 02:01:27;;;;;;;11.10;7.20;;;;;;;19.81;73.64;96596.50;5046450;28;20045;-80
2021/07/25 02:03:52;;;;;;;11.98;7.93;;;;;;;19.89;73.30;96603.59;5045216;28;20049;-79
2021/07/25 02:06:18;;;;;;;11.18;7.45;;;;;;;19.80;73.32;96589.66;5023297;28;20086;-79
2021/07/25 02:08:43;;;;;;;13.13;8.15;;;;;;;19.83;73.44;96596.97;5029122;28;20051;-79
2021/07/25 02:11:09;;;;;;;11.77;8.07;;;;;;;19.86;73.18;96596.31;5029411;28;20496;-79
2021/07/25 02:13:35;;;;;;;14.48;9.73;;;;;;;19.84;73.44;96590.56;5028744;28;20033;-79
2021/07/25 02:16:00;;;;;;;13.18;8.07;;;;;;;19.84;73.33;96587.91;5027872;28;20539;-79
2021/07/25 02:18:27;;;;;;;12.10;8.05;;;;;;;19.92;73.50;96591.63;5028810;28;20619;-79
2021/07/25 02:20:53;;;;;;;13.35;8.95;;;;;;;19.86;73.38;96585.75;5028592;28;20029;-80
2021/07/25 02:23:20;;;;;;;14.98;9.07;;;;;;;19.95;73.63;96597.03;5012424;28;20037;-79
2021/07/25 02:25:46;;;;;;;11.25;8.20;;;;;;;19.90;73.57;96589.31;5028583;28;20029;-80
2021/07/25 02:28:13;;;;;;;14.10;8.82;;;;;;;19.94;73.11;96590.19;5044997;28;20033;-80
2021/07/25 02:30:39;;;;;;;14.00;9.32;;;;;;;19.99;73.37;96599.81;5028594;28;20037;-79
2021/07/25 02:33:05;;;;;;;14.45;9.65;;;;;;;19.99;73.50;96600.59;4995284;28;20032;-79
2021/07/25 02:35:31;;;;;;;13.57;9.70;;;;;;;19.98;73.31;96608.81;5017322;28;20041;-80
2021/07/25 02:37:57;;;;;;;13.45;9.13;;;;;;;19.97;73.48;96602.00;5025900;28;20030;-79
2021/07/25 02:40:23;;;;;;;12.85;9.25;;;;;;;20.00;73.39;96607.44;5009542;28;20067;-79
2021/07/25 02:42:48;;;;;;;14.05;9.73;;;;;;;20.12;73.04;96604.09;5008600;28;20052;-79
2021/07/25 02:45:13;;;;;;;13.23;9.23;;;;;;;20.14;72.77;96601.91;5034972;28;20480;-79
2021/07/25 02:47:39;;;;;;;12.00;8.52;;;;;;;20.21;72.72;96611.97;5011881;28;20025;-79
2021/07/25 02:50:05;;;;;;;11.48;8.68;;;;;;;20.20;72.69;96599.84;5028319;28;20139;-79
2021/07/25 02:52:30;;;;;;;11.40;7.43;;;;;;;20.29;72.58;96616.44;5026403;28;20029;-80
2021/07/25 02:54:56;;;;;;;13.05;9.13;;;;;;;20.25;72.97;96615.53;5010183;28;20032;-79
2021/07/25 02:57:21;;;;;;;13.18;9.07;;;;;;;20.20;72.92;96603.28;5028392;28;20033;-79
2021/07/25 02:59:47;;;;;;;13.43;9.10;;;;;;;20.25;72.73;96615.53;5027567;28;20088;-79
2021/07/25 03:02:12;;;;;;;12.15;9.02;;;;;;;20.32;72.62;96620.31;5024802;28;20033;-79
2021/07/25 03:04:37;;;;;;;11.98;9.52;;;;;;;20.29;72.36;96624.38;4976690;28;20132;-79
2021/07/25 03:07:03;;;;;;;13.40;9.50;;;;;;;20.27;73.03;96625.78;5043738;28;20022;-79
2021/07/25 03:09:28;;;;;;;13.90;8.60;;;;;;;20.22;72.82;96621.47;5044584;28;20029;-80
2021/07/25 03:11:54;;;;;;;11.95;9.10;;;;;;;20.25;72.86;96622.69;5044646;28;20099;-80
2021/07/25 03:14:19;;;;;;;10.80;8.57;;;;;;;20.31;72.69;96630.13;5028691;28;20087;-80
2021/07/25 03:16:45;;;;;;;12.90;9.40;;;;;;;20.34;72.46;96631.31;5029702;28;20492;-80
2021/07/25 03:19:11;;;;;;;12.60;9.05;;;;;;;20.34;72.34;96621.53;5029292;28;20037;-79
2021/07/25 03:21:36;;;;;;;14.45;10.20;;;;;;;20.30;72.46;96625.91;5008170;28;20036;-79
2021/07/25 03:24:02;;;;;;;15.52;10.68;;;;;;;20.31;72.01;96624.81;5023859;28;20030;-79
2021/07/25 03:26:27;;;;;;;15.80;10.52;;;;;;;20.25;72.35;96626.09;5009294;28;20088;-79
2021/07/25 03:28:52;;;;;;;15.70;10.77;;;;;;;20.25;72.39;96618.16;5009807;28;20113;-80
2021/07/25 03:31:18;;;;;;;14.55;10.02;;;;;;;20.23;72.28;96623.00;5012876;28;20540;-80
2021/07/25 03:33:43;;;;;;;19.35;11.57;;;;;;;20.14;72.81;96623.06;5017728;28;20037;-79
2021/07/25 03:36:09;;;;;;;15.18;11.02;;;;;;;20.20;72.44;96634.22;5029134;28;20034;-79
2021/07/25 03:38:34;;;;;;;18.17;11.23;;;;;;;20.19;72.51;96624.75;5012543;28;20087;-79
2021/07/25 03:41:03;;;;;;;19.80;13.35;;;;;;;20.18;72.63;96636.41;5027558;28;20041;-79
2021/07/25 03:43:30;;;;;;;18.58;11.80;;;;;;;20.12;72.60;96613.91;5043584;28;20068;-80
2021/07/25 03:45:56;;;;;;;16.10;11.05;;;;;;;20.18;72.66;96626.59;5029246;28;20068;-80
2021/07/25 03:48:21;;;;;;;17.35;11.82;;;;;;;20.20;72.43;96626.28;5023510;28;20053;-80
2021/07/25 03:50:47;;;;;;;21.67;12.23;;;;;;;20.26;72.35;96624.25;5026698;28;20084;-79
2021/07/25 03:53:12;;;;;;;21.17;14.55;;;;;;;20.12;72.40;96614.69;5005852;28;20098;-80
2021/07/25 03:55:42;;;;;;;22.90;14.05;;;;;;;19.92;72.67;96616.16;5044299;28;20034;-80
2021/07/25 03:58:08;;;;;;;17.98;11.65;;;;;;;20.19;72.31;96622.88;5024580;28;20030;-80
2021/07/25 04:00:33;;;;;;;17.23;12.18;;;;;;;20.26;72.06;96625.00;4993082;28;20033;-79
2021/07/25 04:02:58;;;;;;;21.35;13.70;;;;;;;20.27;72.14;96625.78;5011040;28;20044;-80
2021/07/25 04:05:24;;;;;;;26.45;15.20;;;;;;;20.19;72.39;96620.22;5028901;28;20241;-80
2021/07/25 04:07:50;;;;;;;23.20;14.93;;;;;;;20.24;72.48;96621.13;4994505;28;20396;-79
2021/07/25 04:10:15;;;;;;;22.88;14.27;;;;;;;20.20;72.59;96615.72;5025918;28;20040;-80
2021/07/25 04:12:40;;;;;;;26.35;16.33;;;;;;;20.17;72.77;96617.13;5008884;28;20056;-80
2021/07/25 04:15:07;;;;;;;23.23;14.98;;;;;;;20.26;72.51;96619.72;5028557;28;20040;-79
2021/07/25 04:17:36;;;;;;;24.60;14.63;;;;;;;20.25;72.31;96615.53;5004939;28;20421;-80
2021/07/25 04:20:06;;;;;;;24.15;14.30;;;;;;;20.25;72.22;96618.16;5028093;28;20561;-79
2021/07/25 04:22:33;;;;;;;23.58;15.38;;;;;;;20.32;72.41;96617.66;5024433;28;20034;-80
2021/07/25 04:24:58;;;;;;;26.65;16.13;;;;;;;20.31;72.36;96624.81;5008029;28;20033;-80
2021/07/25 04:27:24;;;;;;;27.92;16.15;;;;;;;20.30;72.55;96610.03;5042873;28;20033;-80
2021/07/25 04:29:49;;;;;;;25.92;16.08;;;;;;;20.35;72.25;96607.22;5023440;28;20073;-80
2021/07/25 04:32:15;;;;;;;26.73;15.20;;;;;;;20.37;72.09;96610.34;4974342;28;20029;-80
2021/07/25 04:34:41;;;;;;;25.08;14.10;;;;;;;20.38;72.43;96611.09;5041585;28;20068;-80
2021/07/25 04:37:11;;;;;;;21.17;13.77;;;;;;;20.36;72.46;96613.28;5023118;28;20269;-80
2021/07/25 04:39:36;;;;;;;25.75;14.32;;;;;;;20.38;72.53;96627.72;5041777;28;20037;-80
2021/07/25 04:42:02;;;;;;;24.52;14.38;;;;;;;20.41;72.44;96623.69;5010647;28;20030;-80
2021/07/25 04:44:39;;;;;;;27.75;15.23;;;;;;;20.29;72.81;96627.03;5041253;28;20084;-80
2021/07/25 04:47:08;;;;;;;29.40;15.90;;;;;;;20.37;72.50;96626.19;4999298;28;20025;-80
2021/07/25 04:49:39;;;;;;;24.23;13.90;;;;;;;20.36;72.72;96631.81;5030507;28;20537;-80
2021/07/25 04:52:06;;;;;;;21.95;14.93;;;;;;;20.38;72.60;96632.25;5013034;28;20112;-80
2021/07/25 04:54:34;;;;;;;24.63;15.00;;;;;;;20.37;72.75;96628.03;5014232;28;20026;-80
2021/07/25 04:57:04;;;;;;;22.13;13.70;;;;;;;20.39;72.66;96631.13;5030492;28;20122;-80
2021/07/25 04:59:32;;;;;;;23.70;15.35;;;;;;;20.46;72.52;96635.91;5012090;28;20037;-80
2021/07/25 05:02:01;;;;;;;20.50;13.38;;;;;;;20.46;72.42;96627.97;5022859;28;20072;-80
2021/07/25 05:04:30;;;;;;;25.80;15.25;;;;;;;20.54;72.45;96643.03;5022805;28;20037;-80
2021/07/25 05:06:56;;;;;;;22.42;13.05;;;;;;;20.54;72.33;96637.72;5028949;28;20068;-80
2021/07/25 05:09:21;;;;;;;23.08;14.60;;;;;;;20.59;72.43;96638.31;5037549;28;20061;-80
2021/07/25 05:11:54;;;;;;;19.17;13.60;;;;;;;20.51;72.73;96647.09;5012223;28;20040;-80
2021/07/25 05:14:26;;;;;;;24.40;14.68;;;;;;;20.56;72.24;96643.47;5027051;28;20065;-80
2021/07/25 05:17:22;;;;;;;22.83;13.90;;;;;;;20.36;72.76;96645.78;5012137;28;20029;-80
2021/07/25 05:19:47;;;;;;;21.38;14.73;;;;;;;20.70;72.15;96645.88;4986289;28;20500;-81
2021/07/25 05:22:38;;;;;;;21.50;13.98;;;;;;;20.59;72.23;96651.53;5021964;28;20369;-81
2021/07/25 05:25:05;;;;;;;19.55;13.52;;;;;;;20.76;71.81;96648.03;5022963;28;20091;-81
2021/07/25 05:27:42;;;;;;;20.88;13.25;;;;;;;20.71;72.36;96658.78;5011988;28;20464;-81
2021/07/25 05:30:10;;;;;;;20.42;14.23;;;;;;;20.85;72.14;96655.13;5028820;28;20033;-81
2021/07/25 05:32:37;;;;;;;20.27;14.13;;;;;;;20.81;72.00;96648.94;5024548;28;20091;-80
2021/07/25 05:35:04;;;;;;;21.50;13.20;;;;;;;20.88;71.83;96652.59;5030196;28;20426;-81
2021/07/25 05:37:30;;;;;;;18.92;12.57;;;;;;;20.97;71.87;96659.69;5013214;28;20025;-81
2021/07/25 05:39:56;;;;;;;16.23;11.80;;;;;;;20.97;71.92;96647.22;5029717;28;20534;-81
2021/07/25 05:42:21;;;;;;;15.40;11.18;;;;;;;21.06;71.69;96650.59;5039416;28;20040;-81
2021/07/25 05:44:47;;;;;;;17.17;10.55;;;;;;;21.10;71.46;96654.13;5009896;28;20034;-81
2021/07/25 05:47:12;;;;;;;17.70;11.52;;;;;;;21.11;71.23;96645.09;5030361;28;20380;-81
2021/07/25 05:49:37;;;;;;;14.98;10.43;;;;;;;21.19;71.67;96653.28;4994076;28;20064;-82
2021/07/25 05:52:03;;;;;;;15.35;9.52;;;;;;;21.21;71.61;96651.84;4992788;28;20062;-82
2021/07/25 05:54:29;;;;;;;14.52;10.02;;;;;;;21.23;71.15;96654.97;5018531;28;20030;-82
2021/07/25 05:56:55;;;;;;;15.57;9.63;;;;;;;21.14;70.99;96651.59;5030703;28;20021;-81
2021/07/25 05:59:21;;;;;;;14.45;10.20;;;;;;;21.10;70.60;96654.13;5012299;28;20036;-82
2021/07/25 06:01:46;;;;;;;14.40;9.68;;;;;;;21.12;70.91;96656.44;5044420;28;20041;-82
2021/07/25 06:04:11;;;;;;;15.77;10.02;;;;;;;21.17;70.89;96658.13;5014575;28;20037;-82
2021/07/25 06:06:37;;;;;;;13.20;8.90;;;;;;;21.16;70.78;96653.91;5004149;28;20046;-82
2021/07/25 06:09:03;;;;;;;12.00;8.32;;;;;;;21.23;71.05;96665.53;5034739;28;20036;-83
2021/07/25 06:11:29;;;;;;;12.55;8.98;;;;;;;21.18;70.82;96663.09;5027717;28;20120;-84
2021/07/25 06:13:54;;;;;;;12.38;8.98;;;;;;;21.23;70.32;96654.16;5032543;28;20113;-82
2021/07/25 06:16:20;;;;;;;11.57;8.82;;;;;;;21.24;70.33;96650.44;5011963;28;20420;-83
2021/07/25 06:18:45;;;;;;;11.68;8.38;;;;;;;21.33;70.41;96656.41;5012303;28;20042;-83
2021/07/25 06:21:12;;;;;;;9.77;7.07;;;;;;;21.40;70.32;96661.94;5029363;28;20026;-83
2021/07/25 06:23:38;;;;;;;13.05;7.93;;;;;;;21.48;70.43;96665.63;5033080;28;20029;-82
2021/07/25 06:26:03;;;;;;;9.93;7.65;;;;;;;21.56;69.75;96650.75;5014956;28;20067;-84
2021/07/25 06:28:28;;;;;;;10.93;7.78;;;;;;;21.63;69.80;96651.75;5014849;28;20468;-84
2021/07/25 06:30:54;;;;;;;8.15;7.25;;;;;;;21.64;68.92;96661.28;5031892;28;20041;-84
2021/07/25 06:33:19;;;;;;;12.65;8.60;;;;;;;21.65;69.19;96662.78;5013474;28;20549;-83
2021/07/25 06:35:47;;;;;;;9.85;7.20;;;;;;;21.57;68.69;96657.59;5026974;28;20041;-84
2021/07/25 06:38:14;;;;;;;10.45;8.45;;;;;;;21.63;69.34;96667.66;5023925;28;20026;-84
2021/07/25 06:40:47;;;;;;;11.90;7.72;;;;;;;21.62;69.21;96678.59;5011816;28;20038;-84
2021/07/25 06:43:13;;;;;;;8.82;7.35;;;;;;;21.79;69.10;96667.78;5013772;28;20507;-84
2021/07/25 06:45:38;;;;;;;11.77;8.00;;;;;;;21.94;67.93;96678.84;5011549;28;20058;-84
2021/07/25 06:48:18;;;;;;;10.00;7.70;;;;;;;21.73;68.50;96677.06;4989477;28;20546;-84
2021/07/25 06:50:46;;;;;;;9.23;6.90;;;;;;;21.92;68.25;96686.34;5023743;28;20392;-84
2021/07/25 06:53:11;;;;;;;11.18;7.72;;;;;;;21.89;68.05;96685.91;5012984;28;20439;-84
2021/07/25 06:55:36;;;;;;;9.00;7.65;;;;;;;21.93;68.66;96693.97;5008532;28;20030;-84
2021/07/25 06:58:02;;;;;;;11.25;8.73;;;;;;;21.95;68.47;96683.03;4999045;28;20315;-84
2021/07/25 07:00:27;;;;;;;10.95;8.75;;;;;;;21.91;68.52;96690.13;5025484;28;20483;-84
2021/07/25 07:02:57;;;;;;;9.55;7.78;;;;;;;21.75;68.42;96695.28;4994290;28;20044;-83
2021/07/25 07:05:23;;;;;;;10.32;8.40;;;;;;;21.83;68.54;96692.53;5008113;28;20400;-84
2021/07/25 07:07:51;;;;;;;11.55;7.40;;;;;;;21.85;68.81;96686.91;5010115;28;20400;-83
2021/07/25 07:10:19;;;;;;;11.90;8.13;;;;;;;21.88;68.38;96696.84;5028416;28;20106;-83
2021/07/25 07:12:45;;;;;;;12.32;8.18;;;;;;;21.79;69.55;96686.34;5002447;28;20544;-84
2021/07/25 07:15:12;;;;;;;10.32;8.23;;;;;;;22.22;69.56;96692.97;5016736;28;20038;-83
2021/07/25 07:17:38;;;;;;;8.77;7.68;;;;;;;22.40;67.65;96698.88;5045893;28;20480;-83
2021/07/25 07:20:09;;;;;;;9.75;8.18;;;;;;;22.35;66.57;96703.63;5044701;28;20483;-83
2021/07/25 07:22:35;;;;;;;9.30;7.38;;;;;;;22.51;66.59;96693.88;4994456;28;20173;-83
2021/07/25 07:25:00;;;;;;;8.85;7.45;;;;;;;22.38;66.13;96702.94;5027946;28;20496;-83
2021/07/25 07:27:26;;;;;;;8.68;7.68;;;;;;;22.25;67.02;96708.25;5044394;28;20415;-83
2021/07/25 07:29:52;;;;;;;8.00;6.93;;;;;;;22.35;66.36;96711.59;5022126;28;20029;-82
2021/07/25 07:32:18;;;;;;;9.52;8.00;;;;;;;22.26;66.36;96707.16;4994860;28;20487;-82
2021/07/25 07:34:43;;;;;;;9.50;7.38;;;;;;;22.24;66.28;96706.72;4994769;28;20030;-82
2021/07/25 07:37:09;;;;;;;8.50;7.65;;;;;;;22.38;66.67;96711.72;5011190;28;20030;-82
2021/07/25 07:39:38;;;;;;;8.32;7.50;;;;;;;22.51;66.59;96709.81;5027395;28;20060;-82
2021/07/25 07:42:05;;;;;;;7.70;6.57;;;;;;;22.71;65.03;96702.06;5011241;28;20164;-83
2021/07/25 07:44:31;;;;;;;8.98;6.28;;;;;;;22.68;63.96;96702.72;5027560;28;20072;-84
2021/07/25 07:46:57;;;;;;;8.32;7.45;;;;;;;22.62;63.63;96702.94;5011539;28;20032;-83
2021/07/25 07:49:22;;;;;;;7.72;6.82;;;;;;;22.68;62.90;96698.16;5010987;28;20060;-83
2021/07/25 07:51:47;;;;;;;10.77;7.07;;;;;;;22.68;64.47;96697.41;5010596;28;20742;-82
2021/07/25 07:54:13;;;;;;;7.53;6.72;;;;;;;23.01;62.71;96697.19;5008126;28;20116;-82
2021/07/25 07:56:38;;;;;;;8.57;6.85;;;;;;;23.04;62.87;96693.09;5024623;28;20124;-82
2021/07/25 07:59:04;;;;;;;6.90;6.20;;;;;;;23.29;61.23;96691.94;5008736;28;20498;-81
2021/07/25 08:01:29;;;;;;;7.53;6.43;;;;;;;23.34;61.42;96696.25;5008817;28;20038;-81
2021/07/25 08:03:55;;;;;;;6.20;5.60;;;;;;;23.37;61.34;96699.00;5008077;28;20041;-81
2021/07/25 08:06:21;;;;;;;7.32;6.55;;;;;;;23.59;61.17;96707.50;5039408;28;20030;-82
2021/07/25 08:08:46;;;;;;;9.43;6.65;;;;;;;23.62;61.04;96704.16;5009828;28;20503;-81
2021/07/25 08:11:12;;;;;;;5.93;5.40;;;;;;;23.63;60.76;96702.28;5008436;28;20026;-82
2021/07/25 08:13:38;;;;;;;7.07;5.78;;;;;;;23.58;60.72;96702.53;5027625;28;20503;-81
2021/07/25 08:16:03;;;;;;;5.90;5.30;;;;;;;23.32;60.52;96709.84;5031777;28;20030;-81
2021/07/25 08:18:29;;;;;;;5.47;4.60;;;;;;;23.29;60.65;96710.53;5031448;28;20087;-82
2021/07/25 08:20:54;;;;;;;4.68;4.22;;;;;;;23.25;61.30;96706.22;5031162;28;20037;-81
2021/07/25 08:23:19;;;;;;;4.72;4.20;;;;;;;23.51;61.39;96706.56;5019653;28;20038;-83
2021/07/25 08:25:45;;;;;;;7.80;4.43;;;;;;;23.95;61.33;96713.75;5011829;28;20037;-81
2021/07/25 08:28:10;;;;;;;4.75;4.25;;;;;;;24.30;58.83;96699.75;5012288;28;20025;-81
2021/07/25 08:30:36;;;;;;;5.80;4.15;;;;;;;24.48;59.83;96708.88;5024655;28;20108;-81
2021/07/25 08:33:02;;;;;;;5.22;4.18;;;;;;;24.84;57.74;96699.03;5014659;28;20037;-81
2021/07/25 08:35:27;;;;;;;4.30;3.90;;;;;;;25.11;54.52;96693.84;5047986;28;20034;-80
2021/07/25 08:37:53;;;;;;;5.28;4.03;;;;;;;25.26;53.93;96699.47;5031014;28;20100;-81
2021/07/25 08:40:20;;;;;;;4.90;4.07;;;;;;;25.39;53.52;96688.31;5027396;28;20033;-81
2021/07/25 08:42:57;;;;;;;4.30;3.83;;;;;;;25.67;51.56;96694.50;5011073;28;20041;-81
2021/07/25 08:45:23;;;;;;;4.90;3.70;;;;;;;25.60;52.03;96690.59;5011986;28;20038;-81
2021/07/25 08:47:54;;;;;;;4.75;3.85;;;;;;;25.34;54.45;96679.84;5027709;28;20553;-81
2021/07/25 08:50:27;;;;;;;5.47;3.70;;;;;;;25.69;52.25;96693.03;5026475;28;20034;-81
2021/07/25 08:52:55;;;;;;;4.45;4.05;;;;;;;25.85;52.15;96692.16;4995495;28;20030;-81
2021/07/25 08:55:21;;;;;;;4.30;3.92;;;;;;;26.03;50.58;96697.78;5031066;28;20087;-81
2021/07/25 08:57:51;;;;;;;3.92;3.60;;;;;;;26.07;50.09;96703.97;5014605;28;20026;-81
2021/07/25 09:00:19;;;;;;;3.70;3.40;;;;;;;26.02;52.46;96698.94;5014434;28;20403;-81
2021/07/25 09:02:45;;;;;;;4.22;3.72;;;;;;;26.35;51.52;96699.03;5046828;28;20119;-81
2021/07/25 09:05:11;;;;;;;3.97;3.35;;;;;;;26.77;49.07;96701.91;5032667;28;20041;-82
2021/07/25 09:07:41;;;;;;;3.60;3.30;;;;;;;26.66;50.40;96710.53;5020087;28;20032;-82
2021/07/25 09:10:09;;;;;;;3.70;3.30;;;;;;;26.67;48.66;96709.44;5032079;28;20029;-80
2021/07/25 09:12:35;;;;;;;3.60;3.30;;;;;;;26.98;48.21;96704.09;5030908;28;20029;-81
2021/07/25 09:15:06;;;;;;;4.00;3.63;;;;;;;27.06;49.49;96711.06;5030317;28;20369;-81
2021/07/25 09:17:32;;;;;;;4.07;3.67;;;;;;;27.30;47.82;96704.50;5030630;28;20037;-81
2021/07/25 09:20:31;;;;;;;4.72;3.65;;;;;;;27.09;51.20;96710.31;5047325;28;20041;-81
2021/07/25 09:23:05;;;;;;;3.38;3.08;;;;;;;27.67;46.58;96706.38;4981301;28;20370;-81
2021/07/25 09:25:57;;;;;;;3.88;3.40;;;;;;;27.63;47.47;96706.34;5030018;28;20420;-81
2021/07/25 09:28:31;;;;;;;3.88;3.47;;;;;;;27.57;46.83;96712.38;5011409;28;20049;-81
2021/07/25 09:31:10;;;;;;;3.55;2.90;;;;;;;27.23;47.49;96707.03;5028435;28;20038;-80
2021/07/25 09:33:36;;;;;;;15.98;3.60;;;;;;;27.57;47.66;96715.84;5021026;28;20507;-80
2021/07/25 09:36:03;;;;;;;3.90;3.60;;;;;;;27.64;48.72;96707.09;5046429;28;20041;-80
2021/07/25 09:38:29;;;;;;;3.83;3.53;;;;;;;28.17;47.55;96711.41;5031185;28;20559;-81
2021/07/25 09:40:55;;;;;;;4.13;3.30;;;;;;;28.34;46.26;96712.66;5029818;28;20383;-81
2021/07/25 09:43:24;;;;;;;3.53;3.22;;;;;;;27.86;46.95;96713.41;5028082;28;20033;-81
2021/07/25 09:45:50;;;;;;;3.72;3.13;;;;;;;27.88;47.43;96721.09;5009350;28;20108;-80
2021/07/25 09:48:39;;;;;;;4.18;3.03;;;;;;;27.97;48.28;96714.31;5028894;28;20025;-80
2021/07/25 09:51:16;;;;;;;3.80;3.45;;;;;;;28.08;47.31;96711.72;5027043;28;20302;-80
2021/07/25 09:53:44;;;;;;;3.20;3.00;;;;;;;28.51;45.69;96708.56;5029921;28;20369;-81
2021/07/25 09:56:23;;;;;;;3.72;2.95;;;;;;;28.08;47.95;96703.69;5030504;28;20038;-81
2021/07/25 09:58:50;;;;;;;3.30;3.00;;;;;;;28.66;44.54;96704.84;5013351;28;20120;-81
2021/07/25 10:01:33;;;;;;;4.00;3.15;;;;;;;27.98;45.97;96710.50;5013120;28;20029;-81
2021/07/25 10:04:12;;;;;;;3.33;2.60;;;;;;;27.97;48.21;96713.56;5031592;28;20073;-80
2021/07/25 10:06:43;;;;;;;3.75;2.67;;;;;;;28.50;46.50;96705.13;5043025;28;20080;-81
2021/07/25 10:09:19;;;;;;;3.55;2.47;;;;;;;29.10;43.25;96700.47;5022932;28;20049;-80
2021/07/25 10:11:59;;;;;;;4.20;2.67;;;;;;;29.15;43.40;96694.75;5045239;28;20056;-81
2021/07/25 10:14:26;;;;;;;2.70;2.50;;;;;;;29.54;41.04;96696.75;5046061;28;20488;-80
2021/07/25 10:16:52;;;;;;;4.25;3.08;;;;;;;29.37;43.93;96700.94;5029269;28;20056;-80
2021/07/25 10:19:28;;;;;;;2.90;2.70;;;;;;;29.39;45.88;96701.34;5012623;28;20029;-81
2021/07/25 10:21:57;;;;;;;2.70;2.50;;;;;;;29.72;42.57;96683.38;5012495;28;20103;-81
2021/07/25 10:24:24;;;;;;;3.22;2.55;;;;;;;30.03;40.57;96689.91;5029686;28;20475;-80
2021/07/25 10:26:53;;;;;;;4.10;2.45;;;;;;;29.95;41.60;96693.75;5029074;28;20109;-80
2021/07/25 10:29:21;;;;;;;3.15;2.67;;;;;;;29.92;40.53;96693.75;5028962;28;20033;-80
2021/07/25 10:31:47;;;;;;;3.42;2.78;;;;;;;29.34;42.77;96680.25;5028440;28;20030;-81
2021/07/25 10:34:12;;;;;;;4.05;2.78;;;;;;;28.73;43.64;96688.06;5029031;28;20140;-81
2021/07/25 10:36:39;;;;;;;2.53;2.38;;;;;;;29.26;44.72;96682.16;5028585;28;20033;-81
2021/07/25 10:39:04;;;;;;;3.70;2.45;;;;;;;29.79;44.02;96682.66;5022366;28;20044;-82
2021/07/25 10:41:30;;;;;;;3.65;2.40;;;;;;;30.13;41.32;96684.94;5045395;28;20041;-81
2021/07/25 10:43:59;;;;;;;2.80;2.60;;;;;;;29.78;43.08;96689.16;5013259;28;20656;-81
2021/07/25 10:46:25;;;;;;;3.40;2.42;;;;;;;30.04;41.64;96691.47;5029302;28;20025;-81
2021/07/25 10:49:00;;;;;;;2.95;2.58;;;;;;;30.08;40.36;96685.31;5046183;28;20061;-81
2021/07/25 10:51:26;;;;;;;2.42;2.22;;;;;;;30.23;40.11;96670.72;5029043;28;20475;-81
2021/07/25 10:53:52;;;;;;;2.97;2.67;;;;;;;29.84;39.72;96676.91;5029224;28;20033;-81
2021/07/25 10:56:55;;;;;;;3.92;2.72;;;;;;;29.47;41.47;96677.97;5029040;28;20021;-81
2021/07/25 10:59:40;;;;;;;3.47;2.50;;;;;;;29.18;40.34;96674.47;5012571;28;20033;-81
2021/07/25 11:02:06;;;;;;;2.70;2.50;;;;;;;28.68;41.71;96664.31;5029844;28;20044;-81
2021/07/25 11:04:50;;;;;;;3.13;2.50;;;;;;;27.87;44.34;96668.72;5028845;28;20041;-81
2021/07/25 11:07:21;;;;;;;4.15;3.78;;;;;;;27.90;43.74;96676.00;5026760;28;20373;-81
2021/07/25 11:10:05;;;;;;;3.20;2.92;;;;;;;28.19;43.24;96677.03;5012187;28;20029;-81
2021/07/25 11:12:52;;;;;;;2.65;2.45;;;;;;;28.66;42.30;96671.94;5027835;28;20063;-81
2021/07/25 11:15:32;;;;;;;3.60;2.33;;;;;;;28.90;40.14;96673.97;5010644;28;20488;-81
2021/07/25 11:18:05;;;;;;;2.47;2.20;;;;;;;28.66;43.08;96661.25;5010092;28;20392;-82
2021/07/25 11:20:39;;;;;;;2.40;2.20;;;;;;;29.09;42.66;96658.72;5038840;28;20052;-81
2021/07/25 11:23:10;;;;;;;2.30;2.10;;;;;;;29.18;40.38;96656.47;5028419;28;20345;-81
2021/07/25 11:25:39;;;;;;;4.03;2.08;;;;;;;29.09;42.24;96664.84;4996304;28;20056;-81
2021/07/25 11:28:09;;;;;;;2.63;2.42;;;;;;;28.70;42.11;96657.44;5011559;28;20068;-81
2021/07/25 11:31:01;;;;;;;3.15;2.33;;;;;;;28.42;43.02;96659.94;4995678;28;20064;-81